sensor_id;sensor_type;location;lat;lon;timestamp;P1;durP1;ratioP1;P2;durP2;ratioP2
35324;SDS011;35135;47.510;19.036;2023-03-19T00:01:52;5.43;;;4.50;;
35324;SDS011;35135;47.510;19.036;2023-03-19T00:04:18;4.90;;;4.50;;
35324;SDS011;35135;47.510;19.036;2023-03-19T00:06:44;5.60;;;5.05;;
35324;SDS011;35135;47.510;19.036;2023-03-19T00:09:10;6.28;;;5.25;;
35324;SDS011;35135;47.510;19.036;2023-03-19T00:11:36;5.28;;;4.78;;
35324;SDS011;35135;47.510;19.036;2023-03-19T00:14:02;5.40;;;4.90;;
35324;SDS011;35135;47.510;19.036;2023-03-19T00:16:28;5.50;;;5.00;;
35324;SDS011;35135;47.510;19.036;2023-03-19T00:18:54;5.80;;;5.13;;
35324;SDS011;35135;47.510;19.036;2023-03-19T00:21:20;5.43;;;4.93;;
35324;SDS011;35135;47.510;19.036;2023-03-19T00:23:46;5.40;;;4.90;;
35324;SDS011;35135;47.510;19.036;2023-03-19T00:26:11;5.45;;;4.95;;
35324;SDS011;35135;47.510;19.036;2023-03-19T00:28:37;5.78;;;5.18;;
35324;SDS011;35135;47.510;19.036;2023-03-19T00:31:09;5.00;;;4.50;;
35324;SDS011;35135;47.510;19.036;2023-03-19T00:33:41;5.80;;;5.20;;
35324;SDS011;35135;47.510;19.036;2023-03-19T00:36:07;5.85;;;5.25;;
35324;SDS011;35135;47.510;19.036;2023-03-19T00:38:34;5.63;;;5.13;;
35324;SDS011;35135;47.510;19.036;2023-03-19T00:41:01;5.75;;;5.15;;
35324;SDS011;35135;47.510;19.036;2023-03-19T00:43:28;5.30;;;4.75;;
35324;SDS011;35135;47.510;19.036;2023-03-19T00:45:53;6.22;;;5.63;;
35324;SDS011;35135;47.510;19.036;2023-03-19T00:48:19;5.10;;;4.65;;
35324;SDS011;35135;47.510;19.036;2023-03-19T00:50:46;5.35;;;4.85;;
35324;SDS011;35135;47.510;19.036;2023-03-19T00:53:12;5.40;;;4.90;;
35324;SDS011;35135;47.510;19.036;2023-03-19T00:55:38;5.80;;;5.15;;
35324;SDS011;35135;47.510;19.036;2023-03-19T00:58:04;5.40;;;4.90;;
35324;SDS011;35135;47.510;19.036;2023-03-19T01:00:31;5.63;;;5.10;;
35324;SDS011;35135;47.510;19.036;2023-03-19T01:02:58;6.38;;;5.00;;
35324;SDS011;35135;47.510;19.036;2023-03-19T01:05:24;5.68;;;5.07;;
35324;SDS011;35135;47.510;19.036;2023-03-19T01:07:51;5.45;;;4.95;;
35324;SDS011;35135;47.510;19.036;2023-03-19T01:10:17;6.07;;;5.50;;
35324;SDS011;35135;47.510;19.036;2023-03-19T01:12:44;5.35;;;4.85;;
35324;SDS011;35135;47.510;19.036;2023-03-19T01:15:10;5.50;;;5.00;;
35324;SDS011;35135;47.510;19.036;2023-03-19T01:17:36;5.60;;;4.80;;
35324;SDS011;35135;47.510;19.036;2023-03-19T01:20:02;5.70;;;5.13;;
35324;SDS011;35135;47.510;19.036;2023-03-19T01:22:34;5.53;;;5.03;;
35324;SDS011;35135;47.510;19.036;2023-03-19T01:25:01;6.22;;;5.60;;
35324;SDS011;35135;47.510;19.036;2023-03-19T01:27:27;5.68;;;5.03;;
35324;SDS011;35135;47.510;19.036;2023-03-19T01:29:53;5.75;;;5.25;;
35324;SDS011;35135;47.510;19.036;2023-03-19T01:32:18;5.78;;;5.18;;
35324;SDS011;35135;47.510;19.036;2023-03-19T01:34:44;5.60;;;5.10;;
35324;SDS011;35135;47.510;19.036;2023-03-19T01:37:11;5.75;;;5.25;;
35324;SDS011;35135;47.510;19.036;2023-03-19T01:39:36;5.75;;;5.20;;
35324;SDS011;35135;47.510;19.036;2023-03-19T01:42:02;5.53;;;4.97;;
35324;SDS011;35135;47.510;19.036;2023-03-19T01:44:30;6.05;;;5.45;;
35324;SDS011;35135;47.510;19.036;2023-03-19T01:47:01;5.50;;;5.00;;
35324;SDS011;35135;47.510;19.036;2023-03-19T01:49:32;5.68;;;5.18;;
35324;SDS011;35135;47.510;19.036;2023-03-19T01:51:59;6.07;;;5.45;;
35324;SDS011;35135;47.510;19.036;2023-03-19T01:54:26;5.95;;;5.35;;
35324;SDS011;35135;47.510;19.036;2023-03-19T01:56:59;5.40;;;4.90;;
35324;SDS011;35135;47.510;19.036;2023-03-19T01:59:30;5.50;;;5.00;;
35324;SDS011;35135;47.510;19.036;2023-03-19T02:02:03;5.05;;;4.63;;
35324;SDS011;35135;47.510;19.036;2023-03-19T02:04:33;5.80;;;5.28;;
35324;SDS011;35135;47.510;19.036;2023-03-19T02:07:00;5.72;;;5.22;;
35324;SDS011;35135;47.510;19.036;2023-03-19T02:09:27;5.75;;;5.20;;
35324;SDS011;35135;47.510;19.036;2023-03-19T02:11:53;5.65;;;5.15;;
35324;SDS011;35135;47.510;19.036;2023-03-19T02:14:20;5.45;;;4.95;;
35324;SDS011;35135;47.510;19.036;2023-03-19T02:16:46;5.95;;;5.35;;
35324;SDS011;35135;47.510;19.036;2023-03-19T02:19:14;5.85;;;5.35;;
35324;SDS011;35135;47.510;19.036;2023-03-19T02:21:43;5.65;;;5.15;;
35324;SDS011;35135;47.510;19.036;2023-03-19T02:24:13;5.68;;;4.97;;
35324;SDS011;35135;47.510;19.036;2023-03-19T02:26:52;6.13;;;5.53;;
35324;SDS011;35135;47.510;19.036;2023-03-19T02:29:19;6.18;;;5.57;;
35324;SDS011;35135;47.510;19.036;2023-03-19T02:31:45;6.00;;;5.47;;
35324;SDS011;35135;47.510;19.036;2023-03-19T02:34:53;5.25;;;4.75;;
35324;SDS011;35135;47.510;19.036;2023-03-19T02:37:21;6.00;;;5.40;;
35324;SDS011;35135;47.510;19.036;2023-03-19T02:40:00;5.80;;;5.25;;
35324;SDS011;35135;47.510;19.036;2023-03-19T02:42:39;6.10;;;5.22;;
35324;SDS011;35135;47.510;19.036;2023-03-19T02:45:05;6.20;;;5.25;;
35324;SDS011;35135;47.510;19.036;2023-03-19T02:47:31;6.03;;;5.43;;
35324;SDS011;35135;47.510;19.036;2023-03-19T02:49:57;5.68;;;5.18;;
35324;SDS011;35135;47.510;19.036;2023-03-19T02:52:22;5.95;;;5.35;;
35324;SDS011;35135;47.510;19.036;2023-03-19T02:54:48;5.80;;;5.30;;
35324;SDS011;35135;47.510;19.036;2023-03-19T02:57:14;6.10;;;5.53;;
35324;SDS011;35135;47.510;19.036;2023-03-19T02:59:40;5.63;;;5.13;;
35324;SDS011;35135;47.510;19.036;2023-03-19T03:02:05;5.75;;;5.25;;
35324;SDS011;35135;47.510;19.036;2023-03-19T03:04:32;5.90;;;5.40;;
35324;SDS011;35135;47.510;19.036;2023-03-19T03:06:59;6.38;;;5.38;;
35324;SDS011;35135;47.510;19.036;2023-03-19T03:09:25;28.95;;;6.30;;
35324;SDS011;35135;47.510;19.036;2023-03-19T03:11:51;7.57;;;5.22;;
35324;SDS011;35135;47.510;19.036;2023-03-19T03:14:17;5.82;;;5.25;;
35324;SDS011;35135;47.510;19.036;2023-03-19T03:16:43;5.75;;;5.25;;
35324;SDS011;35135;47.510;19.036;2023-03-19T03:19:08;5.72;;;5.20;;
35324;SDS011;35135;47.510;19.036;2023-03-19T03:21:35;6.50;;;5.90;;
35324;SDS011;35135;47.510;19.036;2023-03-19T03:24:01;5.72;;;5.22;;
35324;SDS011;35135;47.510;19.036;2023-03-19T03:26:27;5.55;;;5.05;;
35324;SDS011;35135;47.510;19.036;2023-03-19T03:28:52;6.20;;;5.60;;
35324;SDS011;35135;47.510;19.036;2023-03-19T03:31:18;5.85;;;5.35;;
35324;SDS011;35135;47.510;19.036;2023-03-19T03:33:45;5.38;;;4.88;;
35324;SDS011;35135;47.510;19.036;2023-03-19T03:36:11;5.50;;;5.00;;
35324;SDS011;35135;47.510;19.036;2023-03-19T03:38:37;5.38;;;4.88;;
35324;SDS011;35135;47.510;19.036;2023-03-19T03:41:03;6.15;;;5.55;;
35324;SDS011;35135;47.510;19.036;2023-03-19T03:43:29;5.78;;;4.85;;
35324;SDS011;35135;47.510;19.036;2023-03-19T03:45:55;6.32;;;4.60;;
35324;SDS011;35135;47.510;19.036;2023-03-19T03:48:21;5.57;;;4.95;;
35324;SDS011;35135;47.510;19.036;2023-03-19T03:50:47;5.82;;;5.22;;
35324;SDS011;35135;47.510;19.036;2023-03-19T03:53:13;5.38;;;4.88;;
35324;SDS011;35135;47.510;19.036;2023-03-19T03:55:39;5.38;;;4.88;;
35324;SDS011;35135;47.510;19.036;2023-03-19T03:58:05;5.85;;;5.35;;
35324;SDS011;35135;47.510;19.036;2023-03-19T04:00:31;5.55;;;5.05;;
35324;SDS011;35135;47.510;19.036;2023-03-19T04:02:56;6.10;;;5.25;;
35324;SDS011;35135;47.510;19.036;2023-03-19T04:05:23;5.80;;;5.30;;
35324;SDS011;35135;47.510;19.036;2023-03-19T04:07:49;5.88;;;5.10;;
35324;SDS011;35135;47.510;19.036;2023-03-19T04:10:15;6.20;;;5.50;;
35324;SDS011;35135;47.510;19.036;2023-03-19T04:12:41;5.75;;;5.15;;
35324;SDS011;35135;47.510;19.036;2023-03-19T04:15:10;5.32;;;4.82;;
35324;SDS011;35135;47.510;19.036;2023-03-19T04:17:36;5.32;;;4.80;;
35324;SDS011;35135;47.510;19.036;2023-03-19T04:20:03;5.97;;;5.40;;
35324;SDS011;35135;47.510;19.036;2023-03-19T04:22:29;5.40;;;4.90;;
35324;SDS011;35135;47.510;19.036;2023-03-19T04:24:55;5.80;;;5.20;;
35324;SDS011;35135;47.510;19.036;2023-03-19T04:27:22;5.30;;;4.80;;
35324;SDS011;35135;47.510;19.036;2023-03-19T04:29:47;5.35;;;4.85;;
35324;SDS011;35135;47.510;19.036;2023-03-19T04:32:13;5.00;;;4.50;;
35324;SDS011;35135;47.510;19.036;2023-03-19T04:34:39;5.85;;;5.25;;
35324;SDS011;35135;47.510;19.036;2023-03-19T04:37:05;5.53;;;5.03;;
35324;SDS011;35135;47.510;19.036;2023-03-19T04:39:34;5.55;;;5.03;;
35324;SDS011;35135;47.510;19.036;2023-03-19T04:42:00;5.55;;;5.05;;
35324;SDS011;35135;47.510;19.036;2023-03-19T04:44:27;5.65;;;5.10;;
35324;SDS011;35135;47.510;19.036;2023-03-19T04:46:53;5.25;;;4.75;;
35324;SDS011;35135;47.510;19.036;2023-03-19T04:49:18;5.70;;;5.15;;
35324;SDS011;35135;47.510;19.036;2023-03-19T04:51:44;6.03;;;5.30;;
35324;SDS011;35135;47.510;19.036;2023-03-19T04:54:10;5.18;;;4.68;;
35324;SDS011;35135;47.510;19.036;2023-03-19T04:56:36;5.35;;;4.85;;
35324;SDS011;35135;47.510;19.036;2023-03-19T04:59:02;5.25;;;4.75;;
35324;SDS011;35135;47.510;19.036;2023-03-19T05:01:27;5.53;;;4.93;;
35324;SDS011;35135;47.510;19.036;2023-03-19T05:03:53;5.35;;;4.85;;
35324;SDS011;35135;47.510;19.036;2023-03-19T05:06:19;5.07;;;4.60;;
35324;SDS011;35135;47.510;19.036;2023-03-19T05:08:45;5.20;;;4.70;;
35324;SDS011;35135;47.510;19.036;2023-03-19T05:11:12;5.32;;;4.85;;
35324;SDS011;35135;47.510;19.036;2023-03-19T05:13:38;5.53;;;4.93;;
35324;SDS011;35135;47.510;19.036;2023-03-19T05:16:04;5.50;;;5.00;;
35324;SDS011;35135;47.510;19.036;2023-03-19T05:18:30;4.90;;;4.40;;
35324;SDS011;35135;47.510;19.036;2023-03-19T05:20:57;5.13;;;4.57;;
35324;SDS011;35135;47.510;19.036;2023-03-19T05:23:23;5.28;;;4.75;;
35324;SDS011;35135;47.510;19.036;2023-03-19T05:25:50;5.15;;;4.65;;
35324;SDS011;35135;47.510;19.036;2023-03-19T05:28:16;4.72;;;4.32;;
35324;SDS011;35135;47.510;19.036;2023-03-19T05:30:41;4.97;;;4.40;;
35324;SDS011;35135;47.510;19.036;2023-03-19T05:33:08;5.20;;;4.70;;
35324;SDS011;35135;47.510;19.036;2023-03-19T05:35:33;5.65;;;4.70;;
35324;SDS011;35135;47.510;19.036;2023-03-19T05:38:00;5.00;;;4.53;;
35324;SDS011;35135;47.510;19.036;2023-03-19T05:40:26;4.97;;;4.47;;
35324;SDS011;35135;47.510;19.036;2023-03-19T05:42:53;5.68;;;4.63;;
35324;SDS011;35135;47.510;19.036;2023-03-19T05:45:18;5.20;;;4.70;;
35324;SDS011;35135;47.510;19.036;2023-03-19T05:47:47;5.28;;;4.47;;
35324;SDS011;35135;47.510;19.036;2023-03-19T05:50:15;5.13;;;4.63;;
35324;SDS011;35135;47.510;19.036;2023-03-19T05:52:43;5.00;;;4.50;;
35324;SDS011;35135;47.510;19.036;2023-03-19T05:55:10;6.47;;;5.25;;
35324;SDS011;35135;47.510;19.036;2023-03-19T05:57:36;5.82;;;5.22;;
35324;SDS011;35135;47.510;19.036;2023-03-19T06:00:03;5.20;;;4.70;;
35324;SDS011;35135;47.510;19.036;2023-03-19T06:02:30;5.65;;;4.82;;
35324;SDS011;35135;47.510;19.036;2023-03-19T06:04:56;5.95;;;5.35;;
35324;SDS011;35135;47.510;19.036;2023-03-19T06:07:22;5.40;;;4.90;;
35324;SDS011;35135;47.510;19.036;2023-03-19T06:09:48;5.35;;;4.85;;
35324;SDS011;35135;47.510;19.036;2023-03-19T06:12:14;5.20;;;4.70;;
35324;SDS011;35135;47.510;19.036;2023-03-19T06:14:40;6.38;;;5.25;;
35324;SDS011;35135;47.510;19.036;2023-03-19T06:17:06;7.05;;;4.90;;
35324;SDS011;35135;47.510;19.036;2023-03-19T06:19:31;5.43;;;4.93;;
35324;SDS011;35135;47.510;19.036;2023-03-19T06:21:57;5.13;;;4.63;;
35324;SDS011;35135;47.510;19.036;2023-03-19T06:24:23;5.78;;;4.38;;
35324;SDS011;35135;47.510;19.036;2023-03-19T06:26:49;5.28;;;4.70;;
35324;SDS011;35135;47.510;19.036;2023-03-19T06:29:14;4.88;;;4.47;;
35324;SDS011;35135;47.510;19.036;2023-03-19T06:31:40;5.43;;;4.93;;
35324;SDS011;35135;47.510;19.036;2023-03-19T06:34:06;4.93;;;4.53;;
35324;SDS011;35135;47.510;19.036;2023-03-19T06:36:32;5.38;;;4.85;;
35324;SDS011;35135;47.510;19.036;2023-03-19T06:38:58;5.63;;;5.05;;
35324;SDS011;35135;47.510;19.036;2023-03-19T06:41:23;6.22;;;4.53;;
35324;SDS011;35135;47.510;19.036;2023-03-19T06:43:49;5.32;;;4.82;;
35324;SDS011;35135;47.510;19.036;2023-03-19T06:46:15;5.22;;;4.72;;
35324;SDS011;35135;47.510;19.036;2023-03-19T06:48:41;5.15;;;4.65;;
35324;SDS011;35135;47.510;19.036;2023-03-19T06:51:06;5.03;;;4.63;;
35324;SDS011;35135;47.510;19.036;2023-03-19T06:53:32;5.00;;;4.50;;
35324;SDS011;35135;47.510;19.036;2023-03-19T06:55:58;4.55;;;4.15;;
35324;SDS011;35135;47.510;19.036;2023-03-19T06:58:24;4.70;;;4.30;;
35324;SDS011;35135;47.510;19.036;2023-03-19T07:00:50;4.65;;;4.05;;
35324;SDS011;35135;47.510;19.036;2023-03-19T07:03:16;5.28;;;4.78;;
35324;SDS011;35135;47.510;19.036;2023-03-19T07:05:42;4.60;;;4.20;;
35324;SDS011;35135;47.510;19.036;2023-03-19T07:08:07;5.75;;;4.53;;
35324;SDS011;35135;47.510;19.036;2023-03-19T07:10:38;5.00;;;4.40;;
35324;SDS011;35135;47.510;19.036;2023-03-19T07:13:04;4.20;;;3.80;;
35324;SDS011;35135;47.510;19.036;2023-03-19T07:15:30;7.57;;;4.30;;
35324;SDS011;35135;47.510;19.036;2023-03-19T07:17:56;4.57;;;4.18;;
35324;SDS011;35135;47.510;19.036;2023-03-19T07:20:22;4.90;;;4.40;;
35324;SDS011;35135;47.510;19.036;2023-03-19T07:22:50;5.28;;;4.35;;
35324;SDS011;35135;47.510;19.036;2023-03-19T07:25:16;4.07;;;3.78;;
35324;SDS011;35135;47.510;19.036;2023-03-19T07:27:43;4.60;;;4.18;;
35324;SDS011;35135;47.510;19.036;2023-03-19T07:30:09;9.07;;;4.30;;
35324;SDS011;35135;47.510;19.036;2023-03-19T07:32:36;6.70;;;4.07;;
35324;SDS011;35135;47.510;19.036;2023-03-19T07:35:03;5.80;;;4.10;;
35324;SDS011;35135;47.510;19.036;2023-03-19T07:37:30;4.30;;;3.75;;
35324;SDS011;35135;47.510;19.036;2023-03-19T07:39:56;4.70;;;3.63;;
35324;SDS011;35135;47.510;19.036;2023-03-19T07:42:22;4.25;;;3.85;;
35324;SDS011;35135;47.510;19.036;2023-03-19T07:44:47;4.18;;;3.78;;
35324;SDS011;35135;47.510;19.036;2023-03-19T07:47:13;4.43;;;4.03;;
35324;SDS011;35135;47.510;19.036;2023-03-19T07:49:38;4.78;;;3.75;;
35324;SDS011;35135;47.510;19.036;2023-03-19T07:52:04;5.35;;;3.88;;
35324;SDS011;35135;47.510;19.036;2023-03-19T07:54:30;4.22;;;3.60;;
35324;SDS011;35135;47.510;19.036;2023-03-19T07:56:56;4.18;;;3.65;;
35324;SDS011;35135;47.510;19.036;2023-03-19T07:59:21;4.82;;;3.80;;
35324;SDS011;35135;47.510;19.036;2023-03-19T08:01:47;4.28;;;3.88;;
35324;SDS011;35135;47.510;19.036;2023-03-19T08:04:13;3.85;;;3.55;;
35324;SDS011;35135;47.510;19.036;2023-03-19T08:06:39;5.07;;;3.67;;
35324;SDS011;35135;47.510;19.036;2023-03-19T08:09:05;4.07;;;3.55;;
35324;SDS011;35135;47.510;19.036;2023-03-19T08:11:31;3.63;;;3.25;;
35324;SDS011;35135;47.510;19.036;2023-03-19T08:13:56;5.00;;;3.90;;
35324;SDS011;35135;47.510;19.036;2023-03-19T08:16:22;4.03;;;3.33;;
35324;SDS011;35135;47.510;19.036;2023-03-19T08:18:48;4.32;;;3.15;;
35324;SDS011;35135;47.510;19.036;2023-03-19T08:21:14;6.07;;;3.88;;
35324;SDS011;35135;47.510;19.036;2023-03-19T08:23:40;3.33;;;3.00;;
35324;SDS011;35135;47.510;19.036;2023-03-19T08:26:06;3.88;;;3.20;;
35324;SDS011;35135;47.510;19.036;2023-03-19T08:28:32;5.32;;;3.72;;
35324;SDS011;35135;47.510;19.036;2023-03-19T08:31:04;3.58;;;3.28;;
35324;SDS011;35135;47.510;19.036;2023-03-19T08:33:33;3.45;;;3.15;;
35324;SDS011;35135;47.510;19.036;2023-03-19T08:36:04;4.78;;;3.22;;
35324;SDS011;35135;47.510;19.036;2023-03-19T08:38:34;3.70;;;2.90;;
35324;SDS011;35135;47.510;19.036;2023-03-19T08:40:59;5.60;;;3.38;;
35324;SDS011;35135;47.510;19.036;2023-03-19T08:43:26;6.85;;;3.35;;
35324;SDS011;35135;47.510;19.036;2023-03-19T08:45:52;11.70;;;3.13;;
35324;SDS011;35135;47.510;19.036;2023-03-19T08:48:18;6.43;;;3.17;;
35324;SDS011;35135;47.510;19.036;2023-03-19T08:50:43;6.88;;;3.80;;
35324;SDS011;35135;47.510;19.036;2023-03-19T08:53:09;5.70;;;4.90;;
35324;SDS011;35135;47.510;19.036;2023-03-19T08:55:35;9.85;;;5.47;;
35324;SDS011;35135;47.510;19.036;2023-03-19T08:58:01;12.15;;;6.45;;
35324;SDS011;35135;47.510;19.036;2023-03-19T09:00:26;7.22;;;5.40;;
35324;SDS011;35135;47.510;19.036;2023-03-19T09:02:52;6.20;;;4.88;;
35324;SDS011;35135;47.510;19.036;2023-03-19T09:05:17;5.78;;;5.05;;
35324;SDS011;35135;47.510;19.036;2023-03-19T09:07:46;6.30;;;4.65;;
35324;SDS011;35135;47.510;19.036;2023-03-19T09:10:12;6.40;;;4.65;;
35324;SDS011;35135;47.510;19.036;2023-03-19T09:12:38;5.30;;;4.25;;
35324;SDS011;35135;47.510;19.036;2023-03-19T09:15:04;4.75;;;4.15;;
35324;SDS011;35135;47.510;19.036;2023-03-19T09:17:30;7.53;;;4.63;;
35324;SDS011;35135;47.510;19.036;2023-03-19T09:19:56;4.95;;;4.30;;
35324;SDS011;35135;47.510;19.036;2023-03-19T09:22:22;6.22;;;4.45;;
35324;SDS011;35135;47.510;19.036;2023-03-19T09:24:47;5.78;;;4.18;;
35324;SDS011;35135;47.510;19.036;2023-03-19T09:27:13;5.25;;;4.35;;
35324;SDS011;35135;47.510;19.036;2023-03-19T09:29:39;5.05;;;3.65;;
35324;SDS011;35135;47.510;19.036;2023-03-19T09:32:05;6.78;;;4.18;;
35324;SDS011;35135;47.510;19.036;2023-03-19T09:34:31;5.97;;;4.30;;
35324;SDS011;35135;47.510;19.036;2023-03-19T09:36:57;5.45;;;3.67;;
35324;SDS011;35135;47.510;19.036;2023-03-19T09:39:22;4.40;;;3.42;;
35324;SDS011;35135;47.510;19.036;2023-03-19T09:42:04;5.45;;;3.67;;
35324;SDS011;35135;47.510;19.036;2023-03-19T09:44:36;4.90;;;3.47;;
35324;SDS011;35135;47.510;19.036;2023-03-19T09:49:49;3.83;;;3.33;;
35324;SDS011;35135;47.510;19.036;2023-03-19T09:52:34;4.20;;;3.50;;
35324;SDS011;35135;47.510;19.036;2023-03-19T09:55:12;5.35;;;3.45;;
35324;SDS011;35135;47.510;19.036;2023-03-19T09:57:49;5.03;;;3.35;;
35324;SDS011;35135;47.510;19.036;2023-03-19T10:02:46;5.53;;;3.13;;
35324;SDS011;35135;47.510;19.036;2023-03-19T10:11:17;3.92;;;3.20;;
35324;SDS011;35135;47.510;19.036;2023-03-19T10:16:44;3.67;;;3.10;;
35324;SDS011;35135;47.510;19.036;2023-03-19T10:19:14;4.13;;;3.40;;
35324;SDS011;35135;47.510;19.036;2023-03-19T10:21:45;4.43;;;3.20;;
35324;SDS011;35135;47.510;19.036;2023-03-19T10:24:21;5.05;;;3.05;;
35324;SDS011;35135;47.510;19.036;2023-03-19T10:27:07;4.22;;;3.15;;
35324;SDS011;35135;47.510;19.036;2023-03-19T10:29:38;4.50;;;3.25;;
35324;SDS011;35135;47.510;19.036;2023-03-19T10:34:47;4.72;;;3.22;;
35324;SDS011;35135;47.510;19.036;2023-03-19T10:37:16;4.63;;;3.10;;
35324;SDS011;35135;47.510;19.036;2023-03-19T10:47:45;5.05;;;3.22;;
35324;SDS011;35135;47.510;19.036;2023-03-19T10:50:15;3.78;;;3.30;;
35324;SDS011;35135;47.510;19.036;2023-03-19T10:52:50;4.72;;;3.30;;
35324;SDS011;35135;47.510;19.036;2023-03-19T10:55:25;3.53;;;2.78;;
35324;SDS011;35135;47.510;19.036;2023-03-19T10:58:13;4.15;;;3.42;;
35324;SDS011;35135;47.510;19.036;2023-03-19T11:00:44;3.47;;;3.03;;
35324;SDS011;35135;47.510;19.036;2023-03-19T11:08:38;4.15;;;2.90;;
35324;SDS011;35135;47.510;19.036;2023-03-19T11:11:04;3.85;;;3.25;;
35324;SDS011;35135;47.510;19.036;2023-03-19T11:13:32;3.90;;;3.30;;
35324;SDS011;35135;47.510;19.036;2023-03-19T11:15:58;4.70;;;3.30;;
35324;SDS011;35135;47.510;19.036;2023-03-19T11:18:29;5.80;;;3.90;;
35324;SDS011;35135;47.510;19.036;2023-03-19T11:21:05;7.60;;;4.50;;
35324;SDS011;35135;47.510;19.036;2023-03-19T11:23:52;8.68;;;5.15;;
35324;SDS011;35135;47.510;19.036;2023-03-19T11:26:26;7.50;;;4.97;;
35324;SDS011;35135;47.510;19.036;2023-03-19T11:28:53;8.20;;;5.25;;
35324;SDS011;35135;47.510;19.036;2023-03-19T11:31:26;12.18;;;6.15;;
35324;SDS011;35135;47.510;19.036;2023-03-19T11:39:39;11.60;;;6.63;;
35324;SDS011;35135;47.510;19.036;2023-03-19T11:47:34;12.93;;;6.72;;
35324;SDS011;35135;47.510;19.036;2023-03-19T11:53:18;10.40;;;6.47;;
35324;SDS011;35135;47.510;19.036;2023-03-19T11:56:10;14.77;;;6.72;;
35324;SDS011;35135;47.510;19.036;2023-03-19T11:58:57;12.40;;;6.53;;
35324;SDS011;35135;47.510;19.036;2023-03-19T12:04:47;11.95;;;7.28;;
35324;SDS011;35135;47.510;19.036;2023-03-19T12:10:32;13.73;;;7.03;;
35324;SDS011;35135;47.510;19.036;2023-03-19T12:24:36;13.90;;;7.35;;
35324;SDS011;35135;47.510;19.036;2023-03-19T12:30:03;13.75;;;7.55;;
35324;SDS011;35135;47.510;19.036;2023-03-19T12:35:15;13.02;;;6.93;;
35324;SDS011;35135;47.510;19.036;2023-03-19T12:37:57;10.25;;;7.32;;
35324;SDS011;35135;47.510;19.036;2023-03-19T12:40:36;10.38;;;7.15;;
35324;SDS011;35135;47.510;19.036;2023-03-19T12:43:16;9.50;;;7.15;;
35324;SDS011;35135;47.510;19.036;2023-03-19T12:45:59;13.30;;;7.65;;
35324;SDS011;35135;47.510;19.036;2023-03-19T12:48:47;10.57;;;6.72;;
35324;SDS011;35135;47.510;19.036;2023-03-19T12:51:18;11.98;;;7.25;;
35324;SDS011;35135;47.510;19.036;2023-03-19T12:59:35;12.32;;;8.80;;
35324;SDS011;35135;47.510;19.036;2023-03-19T13:04:34;12.38;;;8.57;;
35324;SDS011;35135;47.510;19.036;2023-03-19T13:07:15;14.88;;;9.10;;
35324;SDS011;35135;47.510;19.036;2023-03-19T13:09:53;11.27;;;9.18;;
35324;SDS011;35135;47.510;19.036;2023-03-19T13:12:26;11.90;;;10.15;;
35324;SDS011;35135;47.510;19.036;2023-03-19T13:20:29;11.05;;;9.48;;
35324;SDS011;35135;47.510;19.036;2023-03-19T13:23:16;11.87;;;10.40;;
35324;SDS011;35135;47.510;19.036;2023-03-19T13:25:48;11.50;;;10.00;;
35324;SDS011;35135;47.510;19.036;2023-03-19T13:28:21;10.52;;;9.48;;
35324;SDS011;35135;47.510;19.036;2023-03-19T13:31:06;10.13;;;9.10;;
35324;SDS011;35135;47.510;19.036;2023-03-19T13:33:50;12.13;;;9.25;;
35324;SDS011;35135;47.510;19.036;2023-03-19T13:36:26;10.00;;;8.40;;
35324;SDS011;35135;47.510;19.036;2023-03-19T13:38:54;9.55;;;8.60;;
35324;SDS011;35135;47.510;19.036;2023-03-19T13:43:59;10.27;;;8.25;;
35324;SDS011;35135;47.510;19.036;2023-03-19T13:46:45;9.13;;;8.23;;
35324;SDS011;35135;47.510;19.036;2023-03-19T13:54:38;9.27;;;7.18;;
35324;SDS011;35135;47.510;19.036;2023-03-19T13:57:15;7.97;;;7.18;;
35324;SDS011;35135;47.510;19.036;2023-03-19T13:59:44;8.65;;;7.28;;
35324;SDS011;35135;47.510;19.036;2023-03-19T14:04:56;9.63;;;6.40;;
35324;SDS011;35135;47.510;19.036;2023-03-19T14:07:26;8.02;;;6.60;;
35324;SDS011;35135;47.510;19.036;2023-03-19T14:12:22;7.70;;;6.60;;
35324;SDS011;35135;47.510;19.036;2023-03-19T14:15:03;6.93;;;5.65;;
35324;SDS011;35135;47.510;19.036;2023-03-19T14:23:22;7.13;;;5.95;;
35324;SDS011;35135;47.510;19.036;2023-03-19T14:26:09;8.18;;;5.93;;
35324;SDS011;35135;47.510;19.036;2023-03-19T14:34:00;6.33;;;5.70;;
35324;SDS011;35135;47.510;19.036;2023-03-19T14:37:21;6.15;;;5.20;;
35324;SDS011;35135;47.510;19.036;2023-03-19T14:42:37;6.53;;;4.97;;
35324;SDS011;35135;47.510;19.036;2023-03-19T14:48:19;6.28;;;5.20;;
35324;SDS011;35135;47.510;19.036;2023-03-19T14:56:42;5.70;;;4.78;;
35324;SDS011;35135;47.510;19.036;2023-03-19T14:59:11;6.35;;;4.75;;
35324;SDS011;35135;47.510;19.036;2023-03-19T15:01:39;7.90;;;4.75;;
35324;SDS011;35135;47.510;19.036;2023-03-19T15:04:09;6.57;;;4.80;;
35324;SDS011;35135;47.510;19.036;2023-03-19T15:06:40;7.05;;;5.05;;
35324;SDS011;35135;47.510;19.036;2023-03-19T15:09:14;7.97;;;5.03;;
35324;SDS011;35135;47.510;19.036;2023-03-19T15:17:27;11.75;;;5.28;;
35324;SDS011;35135;47.510;19.036;2023-03-19T15:19:55;10.35;;;5.78;;
35324;SDS011;35135;47.510;19.036;2023-03-19T15:22:31;7.00;;;5.10;;
35324;SDS011;35135;47.510;19.036;2023-03-19T15:25:08;11.50;;;4.93;;
35324;SDS011;35135;47.510;19.036;2023-03-19T15:27:36;9.60;;;5.32;;
35324;SDS011;35135;47.510;19.036;2023-03-19T15:30:02;5.80;;;4.75;;
35324;SDS011;35135;47.510;19.036;2023-03-19T15:32:43;5.63;;;4.50;;
35324;SDS011;35135;47.510;19.036;2023-03-19T15:35:08;6.47;;;5.00;;
35324;SDS011;35135;47.510;19.036;2023-03-19T15:37:42;6.35;;;4.82;;
35324;SDS011;35135;47.510;19.036;2023-03-19T15:40:14;7.97;;;5.10;;
35324;SDS011;35135;47.510;19.036;2023-03-19T15:42:42;7.50;;;5.07;;
35324;SDS011;35135;47.510;19.036;2023-03-19T15:45:13;7.22;;;5.07;;
35324;SDS011;35135;47.510;19.036;2023-03-19T15:50:22;12.43;;;4.53;;
35324;SDS011;35135;47.510;19.036;2023-03-19T15:52:51;14.98;;;6.30;;
35324;SDS011;35135;47.510;19.036;2023-03-19T15:55:21;12.93;;;5.77;;
35324;SDS011;35135;47.510;19.036;2023-03-19T15:57:50;14.07;;;8.90;;
35324;SDS011;35135;47.510;19.036;2023-03-19T16:00:20;14.07;;;8.70;;
35324;SDS011;35135;47.510;19.036;2023-03-19T16:02:46;15.57;;;10.25;;
35324;SDS011;35135;47.510;19.036;2023-03-19T16:05:24;10.65;;;7.38;;
35324;SDS011;35135;47.510;19.036;2023-03-19T16:07:54;8.82;;;6.75;;
35324;SDS011;35135;47.510;19.036;2023-03-19T16:12:53;7.78;;;6.28;;
35324;SDS011;35135;47.510;19.036;2023-03-19T16:17:54;9.55;;;6.40;;
35324;SDS011;35135;47.510;19.036;2023-03-19T16:20:20;8.88;;;5.80;;
35324;SDS011;35135;47.510;19.036;2023-03-19T16:22:53;6.32;;;5.45;;
35324;SDS011;35135;47.510;19.036;2023-03-19T16:25:20;7.07;;;5.55;;
35324;SDS011;35135;47.510;19.036;2023-03-19T16:27:51;7.87;;;6.07;;
35324;SDS011;35135;47.510;19.036;2023-03-19T16:30:24;6.30;;;5.28;;
35324;SDS011;35135;47.510;19.036;2023-03-19T16:33:01;7.93;;;5.45;;
35324;SDS011;35135;47.510;19.036;2023-03-19T16:35:28;9.00;;;5.72;;
35324;SDS011;35135;47.510;19.036;2023-03-19T16:40:47;6.63;;;5.15;;
35324;SDS011;35135;47.510;19.036;2023-03-19T16:43:33;9.70;;;5.28;;
35324;SDS011;35135;47.510;19.036;2023-03-19T16:46:05;7.25;;;5.63;;
35324;SDS011;35135;47.510;19.036;2023-03-19T16:48:36;6.97;;;4.40;;
35324;SDS011;35135;47.510;19.036;2023-03-19T16:51:03;6.03;;;5.05;;
35324;SDS011;35135;47.510;19.036;2023-03-19T16:53:30;5.15;;;4.72;;
35324;SDS011;35135;47.510;19.036;2023-03-19T16:55:56;12.52;;;5.47;;
35324;SDS011;35135;47.510;19.036;2023-03-19T17:01:03;6.75;;;4.85;;